createdAt,value
2023-05-11T00:00:25.799Z,101371.70
2023-05-11T00:02:53.015Z,101372.12
2023-05-11T00:05:19.984Z,101372.96
2023-05-11T00:07:46.832Z,101372.05
2023-05-11T00:10:13.633Z,101372.14
2023-05-11T00:12:40.445Z,101373.84
2023-05-11T00:15:07.788Z,101371.56
2023-05-11T00:17:34.842Z,101371.95
2023-05-11T00:20:01.780Z,101375.43
2023-05-11T00:22:28.850Z,101370.98
2023-05-11T00:24:55.771Z,101370.80
2023-05-11T00:27:22.656Z,101375.58
2023-05-11T00:29:49.657Z,101374.61
2023-05-11T00:32:16.569Z,101374.42
2023-05-11T00:34:43.372Z,101374.15
2023-05-11T00:37:10.216Z,101375.73
2023-05-11T00:39:40.752Z,101376.45
2023-05-11T00:42:07.726Z,101374.38
2023-05-11T00:44:34.610Z,101374.02
2023-05-11T00:47:01.781Z,101375.48
2023-05-11T00:49:28.672Z,101370.75
2023-05-11T00:51:57.998Z,101371.61
2023-05-11T00:54:25.054Z,101370.27
2023-05-11T00:56:51.993Z,101370.02
2023-05-11T00:59:19.273Z,101371.41
2023-05-11T01:01:46.180Z,101369.30
2023-05-11T01:04:13.349Z,101369.83
2023-05-11T01:06:52.051Z,101370.21
2023-05-11T01:09:44.322Z,101371.18
2023-05-11T01:12:16.180Z,101369.30
2023-05-11T01:14:58.991Z,101371.59
2023-05-11T01:17:38.336Z,101372.30
2023-05-11T01:20:12.761Z,101371.04
2023-05-11T01:22:58.231Z,101375.23
2023-05-11T01:25:53.240Z,101376.09
2023-05-11T01:28:55.703Z,101378.01
2023-05-11T01:31:23.170Z,101378.69
2023-05-11T01:33:54.374Z,101378.98
2023-05-11T01:36:21.285Z,101379.30
2023-05-11T01:38:48.209Z,101379.21
2023-05-11T01:41:16.502Z,101377.70
2023-05-11T01:43:44.856Z,101379.48
2023-05-11T01:46:12.246Z,101381.98
2023-05-11T01:48:41.308Z,101380.98
2023-05-11T01:51:08.329Z,101379.40
2023-05-11T01:53:37.205Z,101381.07
2023-05-11T01:56:04.292Z,101383.92
2023-05-11T01:58:31.167Z,101383.15
2023-05-11T02:01:00.316Z,101382.17
2023-05-11T02:03:27.580Z,101387.48
2023-05-11T02:05:54.894Z,101381.45
2023-05-11T02:08:21.892Z,101381.38
2023-05-11T02:10:48.750Z,101387.63
2023-05-11T02:13:16.196Z,101388.70
2023-05-11T02:15:43.203Z,101389.35
2023-05-11T02:18:13.298Z,101391.95
2023-05-11T02:20:42.334Z,101393.09
2023-05-11T02:23:09.707Z,101391.61
2023-05-11T02:25:40.863Z,101393.77
2023-05-11T02:28:08.623Z,101397.44
2023-05-11T02:30:39.565Z,101394.35
2023-05-11T02:33:07.264Z,101393.75
2023-05-11T02:35:38.464Z,101395.02
2023-05-11T02:38:05.688Z,101398.10
2023-05-11T02:40:34.821Z,101401.08
2023-05-11T02:43:09.400Z,101401.45
2023-05-11T02:45:36.704Z,101403.70
2023-05-11T02:48:07.698Z,101402.19
2023-05-11T02:50:37.482Z,101401.02
2023-05-11T02:53:07.750Z,101398.44
2023-05-11T02:55:34.968Z,101399.13
2023-05-11T02:58:01.833Z,101401.06
2023-05-11T03:00:29.167Z,101400.77
2023-05-11T03:02:56.390Z,101400.17
2023-05-11T03:05:24.540Z,101402.20
2023-05-11T03:07:52.413Z,101405.01
2023-05-11T03:10:19.592Z,101406.27
2023-05-11T03:12:46.813Z,101407.59
2023-05-11T03:15:14.488Z,101411.38
2023-05-11T03:17:41.852Z,101411.84
2023-05-11T03:20:09.136Z,101416.96
2023-05-11T03:22:36.260Z,101425.55
2023-05-11T03:25:03.497Z,101425.14
2023-05-11T03:27:30.574Z,101421.30
2023-05-11T03:29:57.895Z,101425.34
2023-05-11T03:32:25.233Z,101431.77
2023-05-11T03:34:52.605Z,101433.64
2023-05-11T03:37:19.715Z,101431.02
2023-05-11T03:39:48.998Z,101430.20
2023-05-11T03:42:16.048Z,101430.35
2023-05-11T03:44:44.127Z,101435.09
2023-05-11T03:47:10.969Z,101436.92
2023-05-11T03:49:38.292Z,101438.30
2023-05-11T03:52:05.796Z,101443.10
2023-05-11T03:54:32.686Z,101442.78
2023-05-11T03:56:59.526Z,101442.52
2023-05-11T03:59:26.576Z,101447.69
2023-05-11T04:01:54.040Z,101448.35
2023-05-11T04:04:21.511Z,101448.33
2023-05-11T04:06:48.436Z,101451.62
2023-05-11T04:09:21.235Z,101452.38
2023-05-11T04:11:48.154Z,101451.42
2023-05-11T04:14:15.012Z,101454.46
2023-05-11T04:16:42.509Z,101457.69
2023-05-11T04:19:09.415Z,101461.27
2023-05-11T04:21:36.281Z,101463.10
2023-05-11T04:24:03.581Z,101468.89
2023-05-11T04:26:30.523Z,101462.52
2023-05-11T04:28:57.385Z,101465.62
2023-05-11T04:31:24.336Z,101463.83
2023-05-11T04:33:51.171Z,101467.09
2023-05-11T04:36:18.342Z,101469.45
2023-05-11T04:38:45.792Z,101468.59
2023-05-11T04:41:14.021Z,101469.19
2023-05-11T04:43:41.209Z,101471.74
2023-05-11T04:46:09.258Z,101469.08
2023-05-11T04:48:36.252Z,101466.88
2023-05-11T04:51:04.859Z,101464.45
2023-05-11T04:53:32.339Z,101464.63
2023-05-11T04:55:59.340Z,101465.65
2023-05-11T04:58:26.591Z,101471.05
2023-05-11T05:00:53.547Z,101469.75
2023-05-11T05:03:20.945Z,101474.07
2023-05-11T05:05:48.950Z,101474.55
2023-05-11T05:08:15.992Z,101473.02
2023-05-11T05:10:42.947Z,101470.63
2023-05-11T05:13:09.799Z,101471.68
2023-05-11T05:15:36.728Z,101474.44
2023-05-11T05:18:03.678Z,101476.55
2023-05-11T05:20:31.471Z,101477.61
2023-05-11T05:22:59.155Z,101477.20
2023-05-11T05:25:25.924Z,101476.30
2023-05-11T05:27:52.898Z,101475.13
2023-05-11T05:30:20.082Z,101475.17
2023-05-11T05:32:47.998Z,101478.20
2023-05-11T05:35:14.980Z,101477.55
2023-05-11T05:37:42.860Z,101477.96
2023-05-11T05:40:10.392Z,101481.77
2023-05-11T05:42:42.152Z,101483.41
2023-05-11T05:45:14.609Z,101480.98
2023-05-11T05:47:42.000Z,101479.64
2023-05-11T05:50:09.566Z,101479.58
2023-05-11T05:52:36.495Z,101479.53
2023-05-11T05:55:03.646Z,101480.22
2023-05-11T05:57:30.879Z,101480.67
2023-05-11T05:59:58.138Z,101477.35
2023-05-11T06:02:25.142Z,101474.66
2023-05-11T06:04:52.097Z,101480.98
2023-05-11T06:07:19.281Z,101480.70
2023-05-11T06:09:46.157Z,101477.77
2023-05-11T06:12:13.098Z,101473.45
2023-05-11T06:14:42.882Z,101475.40
2023-05-11T06:17:09.838Z,101474.80
2023-05-11T06:19:37.082Z,101475.41
2023-05-11T06:22:06.493Z,101479.04
2023-05-11T06:24:34.350Z,101480.08
2023-05-11T06:27:01.806Z,101478.33
2023-05-11T06:29:30.364Z,101478.21
2023-05-11T06:31:58.931Z,101474.80
2023-05-11T06:34:26.028Z,101474.81
2023-05-11T06:36:52.972Z,101475.67
2023-05-11T06:39:21.757Z,101473.59
2023-05-11T06:41:51.492Z,101472.45
2023-05-11T06:44:18.436Z,101473.61
2023-05-11T06:46:45.438Z,101471.16
2023-05-11T06:49:12.250Z,101470.81
2023-05-11T06:51:39.114Z,101471.06
2023-05-11T06:54:06.229Z,101471.79
2023-05-11T06:56:35.093Z,101468.75
2023-05-11T06:59:02.758Z,101469.80
2023-05-11T07:01:29.791Z,101472.78
2023-05-11T07:03:56.750Z,101471.95
2023-05-11T07:06:23.605Z,101470.98
2023-05-11T07:08:50.841Z,101468.63
2023-05-11T07:11:19.121Z,101469.06
2023-05-11T07:13:46.062Z,101467.98
2023-05-11T07:16:13.157Z,101467.95
2023-05-11T07:18:40.089Z,101468.70
2023-05-11T07:21:07.290Z,101466.06
2023-05-11T07:23:34.256Z,101470.30
2023-05-11T07:26:01.906Z,101466.02
2023-05-11T07:28:28.863Z,101464.67
2023-05-11T07:30:56.016Z,101466.59
2023-05-11T07:33:22.828Z,101462.27
2023-05-11T07:35:49.809Z,101458.91
2023-05-11T07:38:18.337Z,101456.77
2023-05-11T07:40:45.121Z,101456.04
2023-05-11T07:43:12.122Z,101456.15
2023-05-11T07:45:39.737Z,101455.41
2023-05-11T07:48:06.787Z,101455.09
2023-05-11T07:50:33.832Z,101453.21
2023-05-11T07:53:00.778Z,101449.63
2023-05-11T07:55:30.676Z,101445.02
2023-05-11T07:57:57.806Z,101443.74
2023-05-11T08:00:24.869Z,101440.29
2023-05-11T08:02:51.914Z,101439.89
2023-05-11T08:05:19.898Z,101438.01
2023-05-11T08:07:47.472Z,101433.08
2023-05-11T08:10:14.314Z,101430.98
2023-05-11T08:12:41.221Z,101435.16
2023-05-11T08:15:09.072Z,101435.46
2023-05-11T08:17:36.700Z,101433.68
2023-05-11T08:20:05.018Z,101432.56
2023-05-11T08:22:32.225Z,101428.80
2023-05-11T08:24:59.085Z,101427.49
2023-05-11T08:27:25.983Z,101429.05
2023-05-11T08:29:52.793Z,101426.64
2023-05-11T08:32:19.604Z,101428.21
2023-05-11T08:34:46.936Z,101424.80
2023-05-11T08:37:13.892Z,101429.14
2023-05-11T08:39:47.385Z,101432.66
2023-05-11T08:42:18.574Z,101429.78
2023-05-11T08:44:45.710Z,101431.89
2023-05-11T08:49:42.469Z,101439.52
2023-05-11T08:52:09.254Z,101439.22
2023-05-11T08:54:36.252Z,101437.87
2023-05-11T08:57:03.181Z,101436.61
2023-05-11T08:59:30.534Z,101438.90
2023-05-11T09:01:57.396Z,101437.38
2023-05-11T09:04:24.422Z,101437.55
2023-05-11T09:06:51.370Z,101433.68
2023-05-11T09:09:18.425Z,101433.58
2023-05-11T09:11:45.980Z,101431.55
2023-05-11T09:14:12.907Z,101429.02
2023-05-11T09:16:39.858Z,101425.20
2023-05-11T09:19:07.910Z,101424.19
2023-05-11T09:21:34.988Z,101426.17
2023-05-11T09:24:02.494Z,101420.66
2023-05-11T09:26:30.195Z,101419.82
2023-05-11T09:29:03.889Z,101413.86
2023-05-11T09:31:44.190Z,101415.98
2023-05-11T09:46:24.557Z,101403.05
2023-05-11T09:48:58.851Z,101395.98
2023-05-11T09:51:33.165Z,101387.42
2023-05-11T09:54:01.268Z,101388.50
2023-05-11T09:56:50.856Z,101382.58
2023-05-11T09:59:36.597Z,101375.02
2023-05-11T10:02:23.954Z,101377.91
2023-05-11T10:04:51.718Z,101375.83
2023-05-11T10:07:32.457Z,101373.29
2023-05-11T10:10:01.603Z,101378.35
2023-05-11T10:12:28.906Z,101382.14
2023-05-11T10:14:59.033Z,101379.77
2023-05-11T10:17:26.091Z,101381.59
2023-05-11T10:19:54.655Z,101378.44
2023-05-11T10:22:21.629Z,101382.23
2023-05-11T10:24:48.750Z,101379.41
2023-05-11T10:27:15.699Z,101377.31
2023-05-11T10:29:42.595Z,101378.13
2023-05-11T10:32:09.828Z,101374.92
2023-05-11T10:34:36.938Z,101373.85
2023-05-11T10:37:03.899Z,101369.66
2023-05-11T10:39:30.854Z,101363.29
2023-05-11T10:42:16.929Z,101367.44
2023-05-11T10:44:50.542Z,101361.30
2023-05-11T10:47:52.555Z,101358.16
2023-05-11T10:50:44.015Z,101357.42
2023-05-11T10:53:49.758Z,101352.44
2023-05-11T10:56:35.560Z,101351.90
2023-05-11T10:59:22.683Z,101351.60
2023-05-11T11:01:52.361Z,101349.60
2023-05-11T11:04:20.596Z,101347.14
2023-05-11T11:06:47.624Z,101341.06
2023-05-11T11:09:15.916Z,101340.10
2023-05-11T11:11:48.188Z,101347.65
2023-05-11T11:14:15.807Z,101346.35
2023-05-11T11:17:21.269Z,101343.43
2023-05-11T11:19:48.200Z,101342.34
2023-05-11T11:22:41.866Z,101346.09
2023-05-11T11:25:09.761Z,101345.09
2023-05-11T11:27:46.313Z,101344.09
2023-05-11T11:30:18.335Z,101342.84
2023-05-11T11:32:48.427Z,101344.13
2023-05-11T11:35:41.449Z,101338.25
2023-05-11T11:38:13.074Z,101334.86
2023-05-11T11:40:50.660Z,101336.91
2023-05-11T11:43:26.901Z,101337.75
2023-05-11T11:45:57.445Z,101336.83
2023-05-11T11:48:29.578Z,101332.55
2023-05-11T11:51:07.139Z,101331.23
2023-05-11T11:53:44.666Z,101330.81
2023-05-11T11:56:14.658Z,101331.36
2023-05-11T11:58:41.645Z,101326.17
2023-05-11T12:01:29.890Z,101322.09
2023-05-11T12:04:06.274Z,101322.05
2023-05-11T12:06:37.287Z,101322.79
2023-05-11T12:09:06.999Z,101322.20
2023-05-11T12:11:34.247Z,101319.27
2023-05-11T12:14:01.558Z,101317.86
2023-05-11T12:16:28.428Z,101317.85
2023-05-11T12:19:01.061Z,101319.88
2023-05-11T12:21:31.906Z,101316.13
2023-05-11T12:24:05.776Z,101314.85
2023-05-11T12:26:33.380Z,101310.82
2023-05-11T12:29:11.265Z,101313.62
2023-05-11T12:31:42.963Z,101311.20
2023-05-11T12:34:20.452Z,101307.41
2023-05-11T12:36:48.385Z,101312.59
2023-05-11T12:39:26.402Z,101308.27
2023-05-11T12:41:54.848Z,101308.70
2023-05-11T12:44:23.729Z,101307.06
2023-05-11T12:46:51.083Z,101307.53
2023-05-11T12:49:26.853Z,101308.21
2023-05-11T12:52:01.094Z,101309.89
2023-05-11T12:54:32.209Z,101308.73
2023-05-11T12:57:00.207Z,101304.67
2023-05-11T12:59:31.552Z,101306.02
2023-05-11T13:02:13.193Z,101305.48
2023-05-11T13:04:42.308Z,101304.46
2023-05-11T13:07:10.231Z,101299.47
2023-05-11T13:09:38.724Z,101294.95
2023-05-11T13:12:18.406Z,101294.77
2023-05-11T13:14:47.107Z,101293.38
2023-05-11T13:17:15.574Z,101291.74
2023-05-11T13:19:43.668Z,101288.55
2023-05-11T13:22:11.509Z,101292.27
2023-05-11T13:24:38.451Z,101294.13
2023-05-11T13:27:05.820Z,101288.27
2023-05-11T13:29:33.264Z,101289.78
2023-05-11T13:32:00.478Z,101288.62
2023-05-11T13:34:27.469Z,101289.31
2023-05-11T13:36:54.601Z,101292.75
2023-05-11T13:39:21.876Z,101293.52
2023-05-11T13:41:48.682Z,101284.19
2023-05-11T13:44:15.676Z,101284.70
2023-05-11T13:46:42.504Z,101282.50
2023-05-11T13:49:09.447Z,101280.61
2023-05-11T13:51:36.451Z,101278.79
2023-05-11T13:54:03.509Z,101277.34
2023-05-11T13:56:30.401Z,101272.61
2023-05-11T13:58:59.900Z,101270.73
2023-05-11T14:01:27.712Z,101263.03
2023-05-11T14:03:55.355Z,101262.30
2023-05-11T14:06:23.805Z,101262.95
2023-05-11T14:08:51.157Z,101258.63
2023-05-11T14:11:17.978Z,101256.58
2023-05-11T14:13:45.007Z,101257.66
2023-05-11T14:16:12.201Z,101258.81
2023-05-11T14:18:39.313Z,101259.97
2023-05-11T14:21:06.733Z,101263.33
2023-05-11T14:23:34.061Z,101259.23
2023-05-11T14:26:01.424Z,101255.42
2023-05-11T14:28:28.280Z,101253.41
2023-05-11T14:30:55.229Z,101255.87
2023-05-11T14:33:22.163Z,101251.69
2023-05-11T14:35:50.126Z,101252.54
2023-05-11T14:38:17.292Z,101251.09
2023-05-11T14:40:44.168Z,101246.65
2023-05-11T14:43:11.269Z,101243.72
2023-05-11T14:45:38.152Z,101241.98
2023-05-11T14:48:05.448Z,101239.08
2023-05-11T14:50:32.526Z,101243.24
2023-05-11T14:52:59.405Z,101243.48
2023-05-11T14:55:26.290Z,101245.09
2023-05-11T14:57:53.301Z,101243.73
2023-05-11T15:00:20.472Z,101240.61
2023-05-11T15:02:47.523Z,101242.58
2023-05-11T15:05:14.596Z,101244.02
2023-05-11T15:07:41.543Z,101240.17
2023-05-11T15:10:08.608Z,101240.17
2023-05-11T15:12:35.948Z,101238.04
2023-05-11T15:15:03.607Z,101237.92
2023-05-11T15:17:30.453Z,101239.67
2023-05-11T15:19:57.396Z,101237.76
2023-05-11T15:22:24.342Z,101235.20
2023-05-11T15:24:51.286Z,101235.22
2023-05-11T15:27:18.138Z,101232.69
2023-05-11T15:29:45.077Z,101230.23
2023-05-11T15:32:13.250Z,101228.17
2023-05-11T15:34:54.893Z,101228.31
2023-05-11T15:37:25.885Z,101228.43
2023-05-11T15:39:52.833Z,101228.39
2023-05-11T15:42:19.704Z,101228.67
2023-05-11T15:44:46.518Z,101230.06
2023-05-11T15:47:13.469Z,101231.04
2023-05-11T15:49:40.673Z,101227.73
2023-05-11T15:52:07.590Z,101225.83
2023-05-11T15:54:35.997Z,101223.36
2023-05-11T15:57:03.396Z,101226.98
2023-05-11T15:59:33.192Z,101228.80
2023-05-11T16:02:00.339Z,101227.39
2023-05-11T16:04:27.511Z,101225.70
2023-05-11T16:06:56.761Z,101225.82
2023-05-11T16:09:25.037Z,101224.64
2023-05-11T16:11:51.859Z,101223.90
2023-05-11T16:14:18.695Z,101223.20
2023-05-11T16:16:45.904Z,101221.66
2023-05-11T16:19:12.895Z,101226.08
2023-05-11T16:21:39.917Z,101230.45
2023-05-11T16:24:07.268Z,101232.30
2023-05-11T16:26:34.139Z,101230.98
2023-05-11T16:29:00.970Z,101233.87
2023-05-11T16:31:27.876Z,101233.39
2023-05-11T16:33:54.853Z,101232.38
2023-05-11T16:36:21.794Z,101237.36
2023-05-11T16:38:48.953Z,101240.44
2023-05-11T16:41:16.011Z,101238.56
2023-05-11T16:43:43.106Z,101235.76
2023-05-11T16:46:10.068Z,101234.05
2023-05-11T16:48:37.244Z,101235.33
2023-05-11T16:51:04.309Z,101235.75
2023-05-11T16:53:31.908Z,101236.20
2023-05-11T16:55:58.762Z,101236.45
2023-05-11T16:58:25.660Z,101240.63
2023-05-11T17:00:52.787Z,101242.58
2023-05-11T17:03:20.164Z,101242.34
2023-05-11T17:05:47.197Z,101243.76
2023-05-11T17:08:14.082Z,101243.71
2023-05-11T17:10:41.617Z,101243.89
2023-05-11T17:13:08.430Z,101239.90
2023-05-11T17:15:35.446Z,101239.03
2023-05-11T17:18:02.333Z,101241.31
2023-05-11T17:20:29.212Z,101240.98
2023-05-11T17:22:56.233Z,101240.98
2023-05-11T17:25:23.306Z,101243.71
2023-05-11T17:27:50.362Z,101246.18
2023-05-11T17:30:18.036Z,101246.19
2023-05-11T17:32:45.635Z,101248.72
2023-05-11T17:35:13.214Z,101250.77
2023-05-11T17:37:40.366Z,101255.84
2023-05-11T17:40:08.038Z,101257.96
2023-05-11T17:42:35.032Z,101259.01
2023-05-11T17:45:02.432Z,101261.88
2023-05-11T17:47:29.329Z,101264.98
2023-05-11T17:49:56.523Z,101263.45
2023-05-11T17:52:24.818Z,101264.55
2023-05-11T17:54:51.921Z,101267.04
2023-05-11T17:57:19.308Z,101274.86
2023-05-11T17:59:47.693Z,101278.97
2023-05-11T18:02:14.729Z,101280.86
2023-05-11T18:04:42.213Z,101283.06
2023-05-11T18:07:09.449Z,101285.85
2023-05-11T18:09:36.387Z,101281.49
2023-05-11T18:12:04.576Z,101283.36
2023-05-11T18:14:31.809Z,101282.09
2023-05-11T18:16:58.756Z,101286.44
2023-05-11T18:19:27.037Z,101290.96
2023-05-11T18:21:53.935Z,101293.77
2023-05-11T18:24:20.772Z,101295.61
2023-05-11T18:26:47.684Z,101295.69
2023-05-11T18:29:19.254Z,101298.58
2023-05-11T18:31:46.693Z,101301.94
2023-05-11T18:34:13.632Z,101303.55
2023-05-11T18:36:40.764Z,101298.13
2023-05-11T18:39:07.786Z,101301.44
2023-05-11T18:41:34.732Z,101299.48
2023-05-11T18:44:01.935Z,101304.45
2023-05-11T18:46:29.138Z,101306.13
2023-05-11T18:48:56.089Z,101305.02
2023-05-11T18:51:23.786Z,101304.28
2023-05-11T18:53:50.878Z,101306.67
2023-05-11T18:56:17.828Z,101304.83
2023-05-11T18:58:45.438Z,101304.09
2023-05-11T19:01:12.489Z,101311.18
2023-05-11T19:03:39.626Z,101312.79
2023-05-11T19:06:07.789Z,101311.31
2023-05-11T19:08:34.773Z,101310.07
2023-05-11T19:11:07.003Z,101309.16
2023-05-11T19:16:16.885Z,101308.23
2023-05-11T19:18:53.851Z,101307.67
2023-05-11T19:24:02.780Z,101308.89
2023-05-11T19:29:26.001Z,101311.80
2023-05-11T19:34:36.508Z,101317.16
2023-05-11T19:37:10.388Z,101317.08
2023-05-11T19:39:37.204Z,101317.19
2023-05-11T19:42:06.902Z,101315.17
2023-05-11T19:44:36.578Z,101316.10
2023-05-11T19:49:45.485Z,101316.45
2023-05-11T19:52:15.620Z,101321.26
2023-05-11T19:57:42.061Z,101311.95
2023-05-11T20:00:15.865Z,101311.19
2023-05-11T20:02:43.014Z,101308.33
2023-05-11T20:05:10.394Z,101306.17
2023-05-11T20:07:37.281Z,101311.23
2023-05-11T20:10:04.372Z,101313.36
2023-05-11T20:12:31.250Z,101315.20
2023-05-11T20:14:58.522Z,101313.88
2023-05-11T20:17:25.522Z,101314.47
2023-05-11T20:19:52.676Z,101313.10
2023-05-11T20:22:21.210Z,101313.16
2023-05-11T20:24:48.272Z,101314.27
2023-05-11T20:27:18.275Z,101311.56
2023-05-11T20:29:45.122Z,101311.17
2023-05-11T20:32:12.675Z,101317.59
2023-05-11T20:34:39.598Z,101313.41
2023-05-11T20:37:06.754Z,101313.20
2023-05-11T20:39:33.707Z,101314.75
2023-05-11T20:42:00.736Z,101314.04
2023-05-11T20:44:27.736Z,101315.48
2023-05-11T20:46:54.850Z,101317.69
2023-05-11T20:49:37.559Z,101314.35
2023-05-11T20:52:07.470Z,101318.11
2023-05-11T20:54:35.910Z,101323.02
2023-05-11T20:57:03.236Z,101326.13
2023-05-11T21:02:01.857Z,101324.48
2023-05-11T21:04:31.326Z,101327.34
2023-05-11T21:06:58.271Z,101325.52
2023-05-11T21:09:25.665Z,101328.67
2023-05-11T21:11:52.780Z,101335.73
2023-05-11T21:14:20.487Z,101330.37
2023-05-11T21:16:48.138Z,101332.29
2023-05-11T21:19:16.808Z,101334.90
2023-05-11T21:21:44.102Z,101333.39
2023-05-11T21:24:11.169Z,101333.81
2023-05-11T21:26:38.518Z,101335.48
2023-05-11T21:29:05.800Z,101340.59
2023-05-11T21:31:32.808Z,101342.38
2023-05-11T21:33:59.706Z,101341.89
2023-05-11T21:36:26.585Z,101343.20
2023-05-11T21:38:53.587Z,101346.16
2023-05-11T21:41:20.500Z,101345.83
2023-05-11T21:43:47.354Z,101349.02
2023-05-11T21:46:14.493Z,101349.58
2023-05-11T21:48:41.533Z,101349.92
2023-05-11T21:53:37.383Z,101352.30
2023-05-11T21:56:04.761Z,101353.88
2023-05-11T21:58:31.786Z,101352.84
2023-05-11T22:00:58.889Z,101353.05
2023-05-11T22:03:28.737Z,101353.98
2023-05-11T22:05:56.117Z,101356.13
2023-05-11T22:08:23.338Z,101353.83
2023-05-11T22:10:50.415Z,101353.42
2023-05-11T22:13:17.366Z,101356.58
2023-05-11T22:15:44.218Z,101358.34
2023-05-11T22:18:11.164Z,101362.11
2023-05-11T22:20:38.074Z,101364.81
2023-05-11T22:23:05.140Z,101365.17
2023-05-11T22:25:32.269Z,101364.11
2023-05-11T22:27:59.406Z,101364.99
2023-05-11T22:30:26.406Z,101365.25
2023-05-11T22:32:53.645Z,101363.23
2023-05-11T22:35:20.670Z,101363.58
2023-05-11T22:37:47.656Z,101364.59
2023-05-11T22:40:14.449Z,101364.34
2023-05-11T22:42:41.854Z,101365.13
2023-05-11T22:45:09.650Z,101364.06
2023-05-11T22:47:36.606Z,101363.72
2023-05-11T22:50:03.911Z,101362.16
2023-05-11T22:52:30.799Z,101362.61
2023-05-11T22:54:59.042Z,101362.44
2023-05-11T22:57:26.689Z,101363.11
2023-05-11T22:59:53.658Z,101362.69
2023-05-11T23:02:21.194Z,101361.52
2023-05-11T23:04:52.455Z,101363.88
2023-05-11T23:07:19.783Z,101360.23
2023-05-11T23:09:47.032Z,101363.87
2023-05-11T23:12:13.931Z,101363.13
2023-05-11T23:14:41.968Z,101366.36
2023-05-11T23:17:09.161Z,101365.98
2023-05-11T23:19:36.178Z,101364.61
2023-05-11T23:22:03.173Z,101357.95
2023-05-11T23:24:30.119Z,101357.27
2023-05-11T23:26:57.107Z,101354.45
2023-05-11T23:29:24.519Z,101355.41
2023-05-11T23:31:51.740Z,101355.16
2023-05-11T23:34:19.083Z,101355.05
2023-05-11T23:36:46.731Z,101357.95
2023-05-11T23:39:13.888Z,101353.33
2023-05-11T23:41:40.911Z,101351.90
2023-05-11T23:44:08.048Z,101354.96
2023-05-11T23:46:35.953Z,101356.27
2023-05-11T23:49:03.274Z,101356.21
2023-05-11T23:51:30.125Z,101355.88
2023-05-11T23:53:56.913Z,101353.92
2023-05-11T23:56:23.720Z,101351.66
2023-05-11T23:58:50.801Z,101353.29
